createdAt,value
2022-11-05T00:01:35.088Z,5.00
2022-11-05T00:04:56.855Z,5.10
2022-11-05T00:08:22.719Z,4.65
2022-11-05T00:11:45.331Z,4.67
2022-11-05T00:15:10.385Z,4.53
2022-11-05T00:18:12.914Z,4.65
2022-11-05T00:21:35.215Z,4.18
2022-11-05T00:24:57.241Z,4.43
2022-11-05T00:28:03.577Z,4.17
2022-11-05T00:31:10.856Z,4.20
2022-11-05T00:34:14.433Z,3.80
2022-11-05T00:37:16.883Z,4.20
2022-11-05T00:40:19.705Z,4.40
2022-11-05T00:43:40.979Z,4.63
2022-11-05T00:46:43.473Z,4.70
2022-11-05T00:49:49.401Z,4.38
2022-11-05T00:52:57.252Z,4.55
2022-11-05T00:56:01.114Z,4.75
2022-11-05T00:59:03.675Z,4.53
2022-11-05T01:02:07.078Z,4.50
2022-11-05T01:05:10.636Z,4.68
2022-11-05T01:08:16.322Z,4.72
2022-11-05T01:11:35.364Z,4.20
2022-11-05T01:14:37.884Z,4.43
2022-11-05T01:17:40.416Z,4.90
2022-11-05T01:20:43.683Z,4.20
2022-11-05T01:23:46.945Z,4.72
2022-11-05T01:26:49.711Z,4.85
2022-11-05T01:29:52.237Z,4.77
2022-11-05T01:32:55.560Z,5.35
2022-11-05T01:35:59.118Z,5.00
2022-11-05T01:39:02.061Z,4.95
2022-11-05T01:42:13.841Z,5.22
2022-11-05T01:45:27.858Z,5.30
2022-11-05T01:48:35.471Z,4.80
2022-11-05T01:51:39.144Z,5.03
2022-11-05T01:54:41.868Z,4.50
2022-11-05T01:57:45.186Z,4.10
2022-11-05T02:00:48.744Z,4.53
2022-11-05T02:03:55.550Z,4.20
2022-11-05T02:06:59.407Z,4.40
2022-11-05T02:10:14.445Z,4.07
2022-11-05T02:13:17.536Z,4.05
2022-11-05T02:16:38.911Z,4.13
2022-11-05T02:20:16.502Z,3.83
2022-11-05T02:23:37.298Z,4.40
2022-11-05T02:26:58.495Z,4.97
2022-11-05T02:30:24.294Z,4.47
2022-11-05T02:33:56.628Z,4.33
2022-11-05T02:37:29.000Z,3.83
2022-11-05T02:40:53.981Z,4.13
2022-11-05T02:44:05.399Z,3.90
2022-11-05T02:47:21.489Z,4.07
2022-11-05T02:50:32.798Z,3.70
2022-11-05T02:53:43.014Z,3.50
2022-11-05T02:56:49.511Z,4.07
2022-11-05T03:00:02.035Z,3.55
2022-11-05T03:03:08.620Z,4.40
2022-11-05T03:06:46.520Z,3.87
2022-11-05T03:10:20.059Z,4.10
2022-11-05T03:13:33.424Z,4.53
2022-11-05T03:16:42.235Z,4.30
2022-11-05T03:20:12.814Z,4.05
2022-11-05T03:23:19.195Z,4.00
2022-11-05T03:26:43.426Z,3.72
2022-11-05T03:29:59.298Z,4.18
2022-11-05T03:33:07.141Z,3.95
2022-11-05T03:36:17.896Z,4.50
2022-11-05T03:39:31.351Z,4.00
2022-11-05T03:42:38.839Z,4.13
2022-11-05T03:45:47.560Z,3.50
2022-11-05T03:48:55.439Z,3.35
2022-11-05T03:52:24.350Z,3.40
2022-11-05T03:55:34.667Z,3.43
2022-11-05T03:58:43.654Z,3.85
2022-11-05T04:01:48.093Z,4.07
2022-11-05T04:04:52.138Z,3.92
2022-11-05T04:08:14.593Z,3.38
2022-11-05T04:11:36.530Z,3.43
2022-11-05T04:14:39.729Z,3.42
2022-11-05T04:17:42.132Z,3.78
2022-11-05T04:21:03.903Z,3.65
2022-11-05T04:24:09.722Z,4.20
2022-11-05T04:27:13.239Z,4.20
2022-11-05T04:30:20.837Z,4.60
2022-11-05T04:33:24.217Z,4.72
2022-11-05T04:36:27.243Z,4.93
2022-11-05T04:39:29.736Z,5.45
2022-11-05T04:42:32.232Z,5.10
2022-11-05T04:45:36.247Z,5.30
2022-11-05T04:48:39.745Z,5.40
2022-11-05T04:51:42.412Z,5.07
2022-11-05T04:54:44.900Z,5.13
2022-11-05T04:57:52.891Z,5.13
2022-11-05T05:00:56.297Z,4.80
2022-11-05T05:03:58.794Z,5.28
2022-11-05T05:07:01.302Z,6.13
2022-11-05T05:10:06.630Z,6.20
2022-11-05T05:13:11.885Z,6.40
2022-11-05T05:16:21.601Z,5.30
2022-11-05T05:19:25.604Z,5.05
2022-11-05T05:22:29.321Z,5.03
2022-11-05T05:25:31.781Z,5.35
2022-11-05T05:28:34.360Z,5.63
2022-11-05T05:31:38.577Z,5.60
2022-11-05T05:34:41.087Z,6.05
2022-11-05T05:37:44.427Z,5.80
2022-11-05T05:40:49.910Z,6.05
2022-11-05T05:43:52.526Z,6.40
2022-11-05T05:46:55.836Z,5.63
2022-11-05T05:49:58.531Z,5.40
2022-11-05T05:53:01.059Z,5.63
2022-11-05T05:56:05.583Z,5.35
2022-11-05T05:59:08.289Z,4.63
2022-11-05T06:02:12.711Z,4.90
2022-11-05T06:05:15.549Z,5.70
2022-11-05T06:08:18.801Z,4.97
2022-11-05T06:11:23.582Z,5.38
2022-11-05T06:14:26.029Z,4.70
2022-11-05T06:17:29.307Z,4.53
2022-11-05T06:20:31.760Z,4.78
2022-11-05T06:23:37.212Z,4.28
2022-11-05T06:26:42.910Z,4.32
2022-11-05T06:29:46.722Z,4.57
2022-11-05T06:32:49.636Z,4.45
2022-11-05T06:35:52.794Z,4.43
2022-11-05T06:38:55.288Z,4.70
2022-11-05T06:45:22.038Z,4.60
2022-11-05T06:48:25.474Z,4.30
2022-11-05T06:51:27.986Z,4.68
2022-11-05T06:54:30.476Z,4.20
2022-11-05T06:57:32.913Z,4.47
2022-11-05T07:00:35.940Z,4.50
2022-11-05T07:03:39.559Z,4.47
2022-11-05T07:06:42.892Z,4.10
2022-11-05T07:09:46.202Z,3.97
2022-11-05T07:12:51.919Z,4.55
2022-11-05T07:15:55.975Z,4.23
2022-11-05T07:18:58.411Z,4.20
2022-11-05T07:22:00.849Z,4.40
2022-11-05T07:25:05.904Z,3.78
2022-11-05T07:28:09.674Z,4.18
2022-11-05T07:31:12.914Z,4.27
2022-11-05T07:34:15.906Z,3.72
2022-11-05T07:37:18.967Z,3.88
2022-11-05T07:40:25.065Z,3.40
2022-11-05T07:43:28.429Z,3.90
2022-11-05T07:46:31.765Z,3.80
2022-11-05T07:49:34.953Z,3.45
2022-11-05T07:52:37.393Z,3.50
2022-11-05T07:55:41.938Z,3.55
2022-11-05T07:58:45.460Z,3.60
2022-11-05T08:01:48.142Z,3.00
2022-11-05T08:04:51.532Z,4.00
2022-11-05T08:07:55.933Z,3.30
2022-11-05T08:11:06.841Z,3.13
2022-11-05T08:14:09.430Z,2.90
2022-11-05T08:17:15.975Z,2.93
2022-11-05T08:20:21.997Z,3.08
2022-11-05T08:23:24.434Z,3.25
2022-11-05T08:26:27.469Z,3.50
2022-11-05T08:29:31.459Z,3.10
2022-11-05T08:32:34.168Z,2.90
2022-11-05T08:35:38.765Z,2.40
2022-11-05T08:38:41.211Z,2.70
2022-11-05T08:41:45.654Z,2.70
2022-11-05T08:44:48.996Z,2.72
2022-11-05T08:47:51.429Z,2.73
2022-11-05T08:50:54.899Z,2.88
2022-11-05T08:53:57.540Z,2.45
2022-11-05T08:57:01.070Z,3.03
2022-11-05T09:00:03.925Z,2.83
2022-11-05T09:03:08.333Z,2.97
2022-11-05T09:06:11.109Z,3.03
2022-11-05T09:09:13.655Z,3.03
2022-11-05T09:12:16.311Z,3.00
2022-11-05T09:15:18.793Z,3.20
2022-11-05T09:18:22.196Z,3.00
2022-11-05T09:21:25.571Z,3.10
2022-11-05T09:24:29.019Z,3.03
2022-11-05T09:27:31.934Z,2.92
2022-11-05T09:30:34.549Z,3.05
2022-11-05T09:33:39.432Z,3.00
2022-11-05T09:36:42.652Z,3.15
2022-11-05T09:39:47.156Z,3.47
2022-11-05T09:42:54.074Z,3.60
2022-11-05T09:46:00.372Z,3.25
2022-11-05T09:49:06.951Z,3.43
2022-11-05T09:52:15.292Z,3.70
2022-11-05T09:55:29.259Z,3.85
2022-11-05T09:58:38.596Z,3.58
2022-11-05T10:01:43.336Z,4.43
2022-11-05T10:04:51.233Z,3.80
2022-11-05T10:08:00.183Z,3.67
2022-11-05T10:11:07.826Z,4.10
2022-11-05T10:15:00.008Z,4.10
2022-11-05T10:18:12.632Z,4.38
2022-11-05T10:21:27.774Z,3.70
2022-11-05T10:24:43.808Z,3.63
2022-11-05T10:27:58.134Z,4.30
2022-11-05T10:31:07.060Z,4.30
2022-11-05T10:34:13.625Z,4.20
2022-11-05T10:37:16.700Z,4.20
2022-11-05T10:40:40.258Z,4.07
2022-11-05T10:43:52.303Z,4.22
2022-11-05T10:47:25.419Z,3.97
2022-11-05T10:50:30.115Z,3.88
2022-11-05T10:53:39.170Z,4.60
2022-11-05T10:56:42.531Z,4.10
2022-11-05T10:59:45.734Z,4.45
2022-11-05T11:02:54.270Z,4.38
2022-11-05T11:06:04.379Z,4.32
2022-11-05T11:09:20.837Z,4.10
2022-11-05T11:12:38.198Z,3.97
2022-11-05T11:15:46.253Z,4.20
2022-11-05T11:18:54.777Z,4.13
2022-11-05T11:22:03.316Z,4.28
2022-11-05T11:25:25.451Z,4.20
2022-11-05T11:28:34.293Z,4.70
2022-11-05T11:31:39.523Z,4.40
2022-11-05T11:34:44.532Z,4.05
2022-11-05T11:37:51.877Z,4.13
2022-11-05T11:41:22.378Z,3.80
2022-11-05T11:44:31.069Z,3.90
2022-11-05T11:47:43.933Z,3.97
2022-11-05T11:50:48.858Z,3.80
2022-11-05T11:53:57.448Z,4.10
2022-11-05T11:57:00.791Z,4.30
2022-11-05T12:00:09.463Z,3.88
2022-11-05T12:03:35.752Z,3.47
2022-11-05T12:06:44.384Z,3.67
2022-11-05T12:10:05.628Z,3.45
2022-11-05T12:13:21.278Z,3.60
2022-11-05T12:16:53.225Z,3.00
2022-11-05T12:20:11.342Z,2.63
2022-11-05T12:23:29.147Z,2.53
2022-11-05T12:27:07.925Z,2.20
2022-11-05T12:30:17.615Z,2.00
2022-11-05T12:33:25.742Z,2.28
2022-11-05T12:36:37.124Z,2.00
2022-11-05T12:39:44.418Z,2.75
2022-11-05T12:43:11.722Z,2.00
2022-11-05T12:46:26.656Z,2.17
2022-11-05T12:49:47.547Z,2.20
2022-11-05T12:53:24.766Z,2.50
2022-11-05T12:56:33.330Z,2.03
2022-11-05T12:59:54.845Z,2.30
2022-11-05T13:03:06.058Z,1.93
2022-11-05T13:06:17.258Z,2.15
2022-11-05T13:09:33.101Z,2.13
2022-11-05T13:12:41.223Z,2.13
2022-11-05T13:15:56.728Z,2.42
2022-11-05T13:19:13.563Z,1.80
2022-11-05T13:22:16.064Z,1.80
2022-11-05T13:25:29.076Z,2.00
2022-11-05T13:28:49.190Z,2.00
2022-11-05T13:32:08.322Z,1.70
2022-11-05T13:35:25.990Z,1.60
2022-11-05T13:38:47.537Z,1.35
2022-11-05T13:42:16.082Z,1.40
2022-11-05T13:45:44.075Z,1.80
2022-11-05T13:49:18.784Z,1.52
2022-11-05T13:52:34.122Z,1.70
2022-11-05T13:56:01.620Z,1.30
2022-11-05T13:59:35.028Z,1.40
2022-11-05T14:03:01.608Z,1.80
2022-11-05T14:06:10.603Z,1.70
2022-11-05T14:09:21.004Z,1.60
2022-11-05T14:12:34.306Z,1.90
2022-11-05T14:15:37.452Z,2.00
2022-11-05T14:18:43.985Z,1.95
2022-11-05T14:21:47.871Z,1.90
2022-11-05T14:24:51.455Z,1.90
2022-11-05T14:27:58.279Z,2.25
2022-11-05T14:31:05.438Z,2.10
2022-11-05T14:34:11.293Z,2.08
2022-11-05T14:37:29.863Z,1.88
2022-11-05T14:40:38.892Z,1.70
2022-11-05T14:43:51.888Z,2.00
2022-11-05T14:46:59.740Z,1.88
2022-11-05T14:50:11.709Z,2.00
2022-11-05T14:53:35.335Z,2.72
2022-11-05T14:56:53.231Z,1.90
2022-11-05T15:00:01.092Z,2.00
2022-11-05T15:03:34.760Z,2.00
2022-11-05T15:06:39.498Z,2.10
2022-11-05T15:09:55.747Z,2.00
2022-11-05T15:13:05.312Z,2.10
2022-11-05T15:16:08.296Z,1.98
2022-11-05T15:19:21.266Z,2.00
2022-11-05T15:22:36.496Z,2.10
2022-11-05T15:26:04.294Z,2.15
2022-11-05T15:29:21.635Z,2.17
2022-11-05T15:32:26.738Z,2.05
2022-11-05T15:35:30.373Z,2.10
2022-11-05T15:38:35.026Z,2.05
2022-11-05T15:41:40.023Z,2.28
2022-11-05T15:45:00.067Z,2.67
2022-11-05T15:48:13.493Z,2.20
2022-11-05T15:51:17.759Z,2.58
2022-11-05T15:54:30.335Z,2.42
2022-11-05T15:57:37.962Z,2.67
2022-11-05T16:00:49.066Z,2.50
2022-11-05T16:03:53.232Z,2.60
2022-11-05T16:07:10.381Z,2.33
2022-11-05T16:10:23.745Z,1.90
2022-11-05T16:13:30.790Z,2.30
2022-11-05T16:16:34.346Z,2.33
2022-11-05T16:19:41.792Z,2.30
2022-11-05T16:22:50.843Z,2.05
2022-11-05T16:25:53.661Z,1.90
2022-11-05T16:28:59.312Z,2.00
2022-11-05T16:32:05.337Z,2.40
2022-11-05T16:35:21.014Z,2.42
2022-11-05T16:38:24.810Z,2.63
2022-11-05T16:41:28.365Z,2.50
2022-11-05T16:44:32.600Z,2.30
2022-11-05T16:47:36.222Z,2.60
2022-11-05T16:50:39.444Z,2.95
2022-11-05T16:53:43.358Z,3.30
2022-11-05T16:56:47.589Z,3.00
2022-11-05T16:59:50.513Z,3.80
2022-11-05T17:02:54.502Z,3.30
2022-11-05T17:05:59.216Z,3.67
2022-11-05T17:09:02.010Z,3.90
2022-11-05T17:12:05.184Z,4.88
2022-11-05T17:15:27.453Z,5.00
2022-11-05T17:18:30.782Z,4.90
2022-11-05T17:21:36.994Z,4.00
2022-11-05T17:24:39.699Z,4.30
2022-11-05T17:27:43.388Z,4.90
2022-11-05T17:30:52.982Z,5.35
2022-11-05T17:33:58.382Z,5.00
2022-11-05T17:37:01.074Z,4.05
2022-11-05T17:40:08.229Z,4.38
2022-11-05T17:43:11.434Z,3.75
2022-11-05T17:46:17.102Z,3.55
2022-11-05T17:49:19.831Z,3.90
2022-11-05T17:52:22.624Z,3.97
2022-11-05T17:55:26.347Z,3.50
2022-11-05T17:58:29.105Z,4.05
2022-11-05T18:01:34.661Z,3.70
2022-11-05T18:04:38.993Z,3.27
2022-11-05T18:07:42.146Z,5.47
2022-11-05T18:10:45.471Z,5.75
2022-11-05T18:13:51.006Z,5.05
2022-11-05T18:17:00.066Z,3.75
2022-11-05T18:20:04.830Z,2.70
2022-11-05T18:23:10.653Z,2.53
2022-11-05T18:26:16.215Z,2.30
2022-11-05T18:29:19.937Z,2.30
2022-11-05T18:32:23.218Z,2.45
2022-11-05T18:35:27.645Z,2.80
2022-11-05T18:38:30.523Z,2.67
2022-11-05T18:41:33.448Z,2.65
2022-11-05T18:44:39.657Z,2.67
2022-11-05T18:47:43.266Z,2.85
2022-11-05T18:50:46.863Z,3.20
2022-11-05T18:53:50.292Z,3.65
2022-11-05T18:56:54.162Z,3.60
2022-11-05T18:59:57.836Z,3.42
2022-11-05T19:03:01.310Z,3.05
2022-11-05T19:06:05.503Z,2.80
2022-11-05T19:09:11.979Z,2.55
2022-11-05T19:12:15.233Z,2.70
2022-11-05T19:15:19.025Z,2.53
2022-11-05T19:18:21.736Z,3.70
2022-11-05T19:21:26.348Z,2.87
2022-11-05T19:24:29.885Z,2.70
2022-11-05T19:27:36.076Z,2.58
2022-11-05T19:30:39.845Z,2.58
2022-11-05T19:33:44.417Z,2.72
2022-11-05T19:36:47.922Z,2.40
2022-11-05T19:39:51.102Z,2.30
2022-11-05T19:42:58.385Z,2.90
2022-11-05T19:46:04.540Z,2.80
2022-11-05T19:49:08.209Z,3.70
2022-11-05T19:52:12.922Z,3.40
2022-11-05T19:55:15.680Z,2.85
2022-11-05T19:58:18.515Z,2.53
2022-11-05T20:01:24.144Z,2.60
2022-11-05T20:04:29.050Z,2.50
2022-11-05T20:07:31.897Z,2.60
2022-11-05T20:10:37.605Z,2.70
2022-11-05T20:13:41.966Z,2.53
2022-11-05T20:16:46.946Z,2.90
2022-11-05T20:19:53.452Z,3.10
2022-11-05T20:22:57.744Z,3.17
2022-11-05T20:26:03.825Z,3.60
2022-11-05T20:29:12.983Z,4.35
2022-11-05T20:32:16.414Z,3.35
2022-11-05T20:35:19.938Z,3.95
2022-11-05T20:38:23.450Z,3.80
2022-11-05T20:41:27.153Z,4.30
2022-11-05T20:44:30.454Z,4.65
2022-11-05T20:47:33.302Z,5.00
2022-11-05T20:50:41.896Z,4.50
2022-11-05T20:53:46.221Z,4.17
2022-11-05T20:56:50.519Z,4.85
2022-11-05T20:59:53.342Z,5.05
2022-11-05T21:02:57.031Z,4.20
2022-11-05T21:06:04.171Z,5.20
2022-11-05T21:09:10.818Z,4.63
2022-11-05T21:12:13.706Z,4.75
2022-11-05T21:15:22.899Z,4.82
2022-11-05T21:18:29.731Z,5.18
2022-11-05T21:21:37.388Z,5.03
2022-11-05T21:24:43.393Z,5.00
2022-11-05T21:27:46.124Z,4.75
2022-11-05T21:30:49.494Z,5.35
2022-11-05T21:33:55.160Z,5.80
2022-11-05T21:36:58.902Z,6.00
2022-11-05T21:40:01.896Z,5.50
2022-11-05T21:43:06.034Z,5.07
2022-11-05T21:46:12.530Z,5.00
2022-11-05T21:49:16.109Z,5.38
2022-11-05T21:52:37.315Z,4.67
2022-11-05T21:55:59.898Z,5.38
2022-11-05T21:59:21.372Z,5.37
2022-11-05T22:02:25.255Z,6.05
2022-11-05T22:05:28.656Z,7.20
2022-11-05T22:08:32.075Z,7.53
2022-11-05T22:11:37.466Z,7.95
2022-11-05T22:14:41.206Z,7.73
2022-11-05T22:17:46.893Z,8.75
2022-11-05T22:20:49.734Z,8.45
2022-11-05T22:23:53.749Z,9.50
2022-11-05T22:26:56.224Z,8.20
2022-11-05T22:29:58.807Z,7.27
2022-11-05T22:33:02.578Z,6.57
2022-11-05T22:36:05.311Z,6.85
2022-11-05T22:39:09.682Z,6.05
2022-11-05T22:42:12.499Z,6.15
2022-11-05T22:45:16.095Z,6.40
2022-11-05T22:48:18.840Z,6.05
2022-11-05T22:51:24.971Z,5.80
2022-11-05T22:54:27.705Z,5.43
2022-11-05T22:57:30.270Z,5.63
2022-11-05T23:00:36.002Z,5.20
2022-11-05T23:03:40.362Z,5.30
2022-11-05T23:07:02.282Z,4.97
2022-11-05T23:10:23.702Z,5.45
2022-11-05T23:13:26.781Z,5.07
2022-11-05T23:16:48.388Z,5.13
2022-11-05T23:20:10.492Z,5.70
2022-11-05T23:23:32.003Z,5.55
2022-11-05T23:26:51.299Z,6.50
2022-11-05T23:29:56.508Z,6.47
2022-11-05T23:32:59.683Z,6.90
2022-11-05T23:36:20.856Z,7.65
2022-11-05T23:39:24.162Z,7.00
2022-11-05T23:42:46.909Z,7.60
2022-11-05T23:46:08.516Z,7.32
2022-11-05T23:49:12.219Z,7.07
2022-11-05T23:52:14.782Z,7.90
2022-11-05T23:55:18.284Z,6.28
2022-11-05T23:58:21.715Z,7.75
